createdAt,value
2022-09-12T00:01:03.669Z,14.95
2022-09-12T00:03:33.560Z,14.91
2022-09-12T00:06:00.152Z,14.88
2022-09-12T00:08:26.693Z,14.85
2022-09-12T00:10:53.130Z,14.82
2022-09-12T00:13:19.537Z,14.81
2022-09-12T00:15:45.992Z,14.78
2022-09-12T00:18:16.452Z,14.75
2022-09-12T00:20:47.369Z,14.73
2022-09-12T00:23:14.794Z,14.71
2022-09-12T00:25:45.710Z,14.72
2022-09-12T00:28:13.713Z,14.71
2022-09-12T00:30:44.625Z,14.68
2022-09-12T00:33:11.665Z,14.66
2022-09-12T00:35:46.046Z,14.67
2022-09-12T00:38:13.252Z,14.65
2022-09-12T00:40:40.295Z,14.63
2022-09-12T00:43:15.163Z,14.61
2022-09-12T00:45:44.568Z,14.58
2022-09-12T00:48:23.569Z,14.55
2022-09-12T00:50:50.462Z,14.52
2022-09-12T00:53:17.978Z,14.48
2022-09-12T00:55:49.300Z,14.42
2022-09-12T00:58:30.350Z,14.38
2022-09-12T01:00:59.668Z,14.34
2022-09-12T01:03:26.718Z,14.33
2022-09-12T01:05:59.582Z,14.30
2022-09-12T01:08:27.381Z,14.28
2022-09-12T01:10:55.538Z,14.25
2022-09-12T01:13:22.589Z,14.20
2022-09-12T01:15:49.200Z,14.16
2022-09-12T01:18:32.294Z,14.14
2022-09-12T01:21:22.779Z,14.11
2022-09-12T01:24:34.565Z,14.07
2022-09-12T01:27:22.924Z,14.05
2022-09-12T01:30:03.216Z,14.02
2022-09-12T01:32:47.066Z,14.00
2022-09-12T01:35:45.476Z,13.97
2022-09-12T01:38:20.994Z,13.95
2022-09-12T01:41:04.909Z,13.91
2022-09-12T01:43:44.099Z,13.88
2022-09-12T01:46:15.728Z,13.85
2022-09-12T01:48:57.195Z,13.84
2022-09-12T01:51:36.064Z,13.81
2022-09-12T01:54:11.567Z,13.77
2022-09-12T01:56:41.664Z,13.74
2022-09-12T01:59:18.825Z,13.72
2022-09-12T02:01:55.016Z,13.70
2022-09-12T02:04:33.997Z,13.66
2022-09-12T02:07:35.753Z,13.63
2022-09-12T02:10:13.750Z,13.61
2022-09-12T02:12:50.034Z,13.60
2022-09-12T02:15:20.642Z,13.58
2022-09-12T02:17:50.594Z,13.54
2022-09-12T02:20:46.908Z,13.50
2022-09-12T02:23:20.537Z,13.49
2022-09-12T02:25:50.950Z,13.47
2022-09-12T02:28:23.677Z,13.43
2022-09-12T02:31:09.513Z,13.43
2022-09-12T02:33:49.229Z,13.40
2022-09-12T02:36:23.983Z,13.40
2022-09-12T02:38:50.989Z,13.39
2022-09-12T02:41:20.663Z,13.36
2022-09-12T02:43:49.066Z,13.35
2022-09-12T02:46:40.862Z,13.32
2022-09-12T02:49:09.333Z,13.32
2022-09-12T02:51:36.289Z,13.29
2022-09-12T02:54:03.598Z,13.27
2022-09-12T02:56:31.245Z,13.25
2022-09-12T02:59:08.090Z,13.24
2022-09-12T03:01:58.758Z,13.22
2022-09-12T03:04:45.577Z,13.19
2022-09-12T03:07:50.590Z,13.16
2022-09-12T03:10:19.637Z,13.15
2022-09-12T03:13:15.222Z,13.16
2022-09-12T03:15:48.357Z,13.15
2022-09-12T03:18:39.461Z,13.13
2022-09-12T03:21:12.807Z,13.10
2022-09-12T03:23:51.631Z,13.06
2022-09-12T03:26:31.052Z,13.05
2022-09-12T03:28:59.164Z,13.03
2022-09-12T03:31:25.904Z,13.02
2022-09-12T03:33:52.381Z,13.00
2022-09-12T03:36:27.080Z,12.98
2022-09-12T03:38:53.702Z,12.95
2022-09-12T03:41:20.671Z,12.93
2022-09-12T03:43:47.634Z,12.93
2022-09-12T03:46:14.764Z,12.91
2022-09-12T03:48:41.715Z,12.88
2022-09-12T03:51:10.270Z,12.85
2022-09-12T03:53:36.846Z,12.85
2022-09-12T03:56:10.807Z,12.85
2022-09-12T03:58:38.209Z,12.83
2022-09-12T04:01:13.362Z,12.83
2022-09-12T04:03:44.996Z,12.83
2022-09-12T04:06:15.158Z,12.81
2022-09-12T04:08:43.119Z,12.78
2022-09-12T04:11:14.862Z,12.77
2022-09-12T04:13:43.599Z,12.73
2022-09-12T04:16:11.760Z,12.71
2022-09-12T04:18:38.778Z,12.70
2022-09-12T04:21:07.212Z,12.71
2022-09-12T04:23:34.672Z,12.71
2022-09-12T04:26:02.516Z,12.73
2022-09-12T04:28:30.087Z,12.74
2022-09-12T04:31:01.101Z,12.76
2022-09-12T04:33:27.515Z,12.77
2022-09-12T04:35:53.923Z,12.77
2022-09-12T04:38:20.310Z,12.78
2022-09-12T04:40:47.661Z,12.79
2022-09-12T04:43:14.718Z,12.79
2022-09-12T04:45:41.290Z,12.77
2022-09-12T04:48:07.709Z,12.78
2022-09-12T04:50:34.173Z,12.77
2022-09-12T04:53:00.599Z,12.78
2022-09-12T04:55:27.118Z,12.80
2022-09-12T04:57:53.540Z,12.81
2022-09-12T05:00:20.565Z,12.84
2022-09-12T05:02:47.149Z,12.86
2022-09-12T05:05:13.567Z,12.87
2022-09-12T05:07:40.406Z,12.90
2022-09-12T05:10:07.470Z,12.91
2022-09-12T05:12:33.914Z,12.93
2022-09-12T05:15:00.303Z,12.94
2022-09-12T05:17:29.386Z,12.97
2022-09-12T05:19:55.806Z,12.97
2022-09-12T05:22:22.807Z,12.98
2022-09-12T05:24:50.671Z,12.98
2022-09-12T05:27:20.543Z,12.99
2022-09-12T05:29:47.004Z,13.00
2022-09-12T05:32:13.497Z,13.00
2022-09-12T05:34:40.459Z,12.99
2022-09-12T05:37:06.927Z,13.01
2022-09-12T05:39:33.648Z,13.04
2022-09-12T05:42:00.073Z,13.05
2022-09-12T05:44:26.773Z,13.07
2022-09-12T05:46:53.621Z,13.08
2022-09-12T05:49:21.468Z,13.10
2022-09-12T05:51:48.411Z,13.11
2022-09-12T05:54:18.047Z,13.13
2022-09-12T05:56:45.426Z,13.13
2022-09-12T05:59:22.002Z,13.16
2022-09-12T06:01:48.968Z,13.17
2022-09-12T06:04:16.081Z,13.18
2022-09-12T06:06:46.947Z,13.20
2022-09-12T06:09:15.591Z,13.21
2022-09-12T06:11:42.401Z,13.23
2022-09-12T06:14:10.799Z,13.24
2022-09-12T06:16:38.186Z,13.27
2022-09-12T06:19:07.531Z,13.29
2022-09-12T06:21:35.499Z,13.30
2022-09-12T06:24:02.593Z,13.31
2022-09-12T06:26:29.579Z,13.33
2022-09-12T06:28:57.952Z,13.32
2022-09-12T06:31:33.724Z,13.33
2022-09-12T06:34:02.871Z,13.34
2022-09-12T06:36:31.865Z,13.35
2022-09-12T06:39:01.052Z,13.39
2022-09-12T06:41:28.186Z,13.46
2022-09-12T06:43:54.915Z,13.56
2022-09-12T06:46:21.621Z,13.62
2022-09-12T06:48:48.242Z,13.64
2022-09-12T06:51:16.755Z,13.66
2022-09-12T06:53:47.481Z,13.67
2022-09-12T06:56:16.901Z,13.78
2022-09-12T06:58:43.858Z,13.84
2022-09-12T07:01:13.161Z,13.93
2022-09-12T07:03:40.016Z,14.07
2022-09-12T07:06:08.160Z,14.18
2022-09-12T07:08:37.086Z,14.31
2022-09-12T07:11:23.960Z,14.38
2022-09-12T07:13:52.837Z,14.57
2022-09-12T07:16:20.341Z,14.68
2022-09-12T07:19:00.851Z,14.84
2022-09-12T07:21:28.100Z,14.96
2022-09-12T07:23:58.162Z,15.02
2022-09-12T07:26:27.480Z,15.11
2022-09-12T07:29:07.865Z,15.13
2022-09-12T07:31:42.540Z,15.22
2022-09-12T07:34:09.196Z,15.32
2022-09-12T07:36:36.081Z,15.42
2022-09-12T07:39:02.685Z,15.52
2022-09-12T07:41:31.177Z,15.57
2022-09-12T07:43:59.534Z,15.64
2022-09-12T07:46:27.788Z,15.68
2022-09-12T07:48:56.603Z,15.81
2022-09-12T07:51:25.422Z,15.91
2022-09-12T07:53:51.874Z,16.05
2022-09-12T07:56:19.901Z,16.25
2022-09-12T07:58:47.083Z,16.37
2022-09-12T08:01:23.205Z,16.46
2022-09-12T08:03:53.884Z,16.50
2022-09-12T08:06:24.177Z,16.50
2022-09-12T08:08:52.001Z,16.55
2022-09-12T08:11:21.848Z,16.65
2022-09-12T08:13:54.338Z,16.79
2022-09-12T08:16:23.151Z,16.88
2022-09-12T08:18:50.086Z,16.98
2022-09-12T08:21:19.558Z,17.13
2022-09-12T08:23:46.688Z,17.30
2022-09-12T08:26:13.717Z,17.40
2022-09-12T08:28:45.603Z,17.47
2022-09-12T08:31:17.786Z,17.58
2022-09-12T08:33:44.494Z,17.66
2022-09-12T08:36:16.210Z,17.75
2022-09-12T08:38:45.181Z,17.90
2022-09-12T08:41:44.307Z,18.06
2022-09-12T08:44:48.835Z,18.22
2022-09-12T08:47:38.389Z,18.33
2022-09-12T08:50:11.724Z,18.31
2022-09-12T08:52:50.319Z,18.31
2022-09-12T08:55:31.335Z,18.45
2022-09-12T08:58:00.722Z,18.54
2022-09-12T09:00:38.109Z,18.60
2022-09-12T09:03:04.749Z,18.60
2022-09-12T09:05:49.793Z,18.69
2022-09-12T09:08:36.139Z,18.84
2022-09-12T09:11:14.512Z,18.98
2022-09-12T09:14:21.917Z,19.10
2022-09-12T09:16:51.730Z,19.14
2022-09-12T09:19:31.648Z,19.19
2022-09-12T09:22:07.013Z,19.23
2022-09-12T09:24:43.449Z,19.34
2022-09-12T09:27:47.459Z,19.44
2022-09-12T09:30:17.298Z,19.57
2022-09-12T09:32:54.540Z,19.66
2022-09-12T09:35:43.521Z,19.77
2022-09-12T09:38:19.349Z,19.82
2022-09-12T09:41:14.990Z,19.89
2022-09-12T09:43:41.560Z,19.94
2022-09-12T09:46:08.304Z,20.00
2022-09-12T09:48:37.515Z,20.15
2022-09-12T09:51:07.114Z,20.23
2022-09-12T09:53:48.861Z,20.30
2022-09-12T09:56:33.616Z,20.36
2022-09-12T09:59:16.777Z,20.46
2022-09-12T10:01:50.071Z,20.50
2022-09-12T10:04:19.948Z,20.53
2022-09-12T10:06:47.020Z,20.55
2022-09-12T10:09:21.695Z,20.61
2022-09-12T10:11:49.819Z,20.72
2022-09-12T10:14:37.965Z,20.83
2022-09-12T10:17:25.430Z,21.00
2022-09-12T10:20:04.836Z,21.06
2022-09-12T10:22:39.967Z,21.14
2022-09-12T10:25:12.314Z,21.19
2022-09-12T10:27:38.758Z,21.19
2022-09-12T10:30:14.469Z,21.27
2022-09-12T10:32:46.327Z,21.34
2022-09-12T10:35:30.528Z,21.45
2022-09-12T10:38:06.388Z,21.51
2022-09-12T10:40:44.088Z,21.53
2022-09-12T10:43:38.022Z,21.60
2022-09-12T10:46:16.553Z,21.68
2022-09-12T10:48:44.154Z,21.75
2022-09-12T10:51:25.750Z,21.80
2022-09-12T10:53:54.786Z,21.81
2022-09-12T10:56:28.876Z,21.89
2022-09-12T10:59:02.673Z,22.02
2022-09-12T11:01:44.935Z,22.10
2022-09-12T11:04:14.037Z,22.17
2022-09-12T11:06:49.118Z,22.25
2022-09-12T11:09:40.340Z,22.38
2022-09-12T11:12:40.869Z,22.45
2022-09-12T11:15:13.289Z,22.53
2022-09-12T11:17:59.947Z,22.49
2022-09-12T11:20:57.179Z,22.44
2022-09-12T11:23:29.737Z,22.52
2022-09-12T11:26:19.001Z,22.67
2022-09-12T11:28:57.521Z,22.74
2022-09-12T11:31:52.275Z,22.88
2022-09-12T11:34:34.469Z,22.96
2022-09-12T11:37:20.739Z,23.10
2022-09-12T11:39:55.195Z,23.14
2022-09-12T11:42:39.244Z,23.17
2022-09-12T11:45:29.965Z,23.10
2022-09-12T11:48:03.877Z,23.20
2022-09-12T11:50:31.772Z,23.15
2022-09-12T11:53:06.144Z,23.15
2022-09-12T11:55:47.887Z,23.25
2022-09-12T11:58:16.035Z,23.27
2022-09-12T12:00:53.404Z,23.37
2022-09-12T12:03:44.967Z,23.37
2022-09-12T12:06:39.291Z,23.43
2022-09-12T12:09:05.909Z,23.56
2022-09-12T12:11:43.626Z,23.59
2022-09-12T12:14:20.777Z,23.65
2022-09-12T12:16:47.833Z,23.56
2022-09-12T12:19:14.197Z,23.62
2022-09-12T12:21:43.901Z,23.71
2022-09-12T12:24:10.380Z,23.73
2022-09-12T12:26:39.930Z,23.75
2022-09-12T12:29:18.377Z,23.86
2022-09-12T12:31:59.856Z,23.82
2022-09-12T12:34:43.524Z,23.84
2022-09-12T12:37:19.110Z,23.97
2022-09-12T12:39:48.504Z,24.16
2022-09-12T12:42:35.977Z,24.20
2022-09-12T12:45:23.502Z,24.25
2022-09-12T12:47:54.533Z,24.30
2022-09-12T12:50:27.377Z,24.25
2022-09-12T12:52:59.526Z,24.27
2022-09-12T12:55:50.272Z,24.23
2022-09-12T12:58:36.246Z,24.27
2022-09-12T13:01:17.032Z,24.33
2022-09-12T13:03:53.337Z,24.30
2022-09-12T13:06:37.592Z,24.35
2022-09-12T13:09:08.748Z,24.41
2022-09-12T13:11:38.490Z,24.51
2022-09-12T13:14:09.369Z,24.59
2022-09-12T13:19:17.571Z,24.67
2022-09-12T13:22:02.409Z,24.74
2022-09-12T13:24:28.885Z,24.86
2022-09-12T13:26:55.390Z,25.00
2022-09-12T13:29:24.851Z,25.02
2022-09-12T13:31:55.365Z,25.08
2022-09-12T13:34:31.326Z,25.04
2022-09-12T13:37:19.776Z,25.03
2022-09-12T13:39:46.537Z,24.99
2022-09-12T13:42:42.626Z,24.89
2022-09-12T13:45:24.277Z,24.88
2022-09-12T13:47:58.712Z,24.85
2022-09-12T13:50:33.018Z,24.80
2022-09-12T13:53:04.487Z,24.76
2022-09-12T13:55:39.151Z,24.67
2022-09-12T13:58:15.236Z,24.55
2022-09-12T14:00:41.882Z,24.57
2022-09-12T14:03:48.014Z,24.66
2022-09-12T14:06:18.973Z,24.76
2022-09-12T14:08:47.951Z,24.83
2022-09-12T14:11:31.010Z,24.98
2022-09-12T14:13:58.248Z,25.04
2022-09-12T14:16:28.371Z,25.04
2022-09-12T14:18:55.118Z,25.10
2022-09-12T14:21:36.368Z,25.08
2022-09-12T14:24:06.903Z,25.02
2022-09-12T14:26:35.501Z,25.01
2022-09-12T14:29:05.692Z,24.96
2022-09-12T14:31:35.135Z,25.04
2022-09-12T14:34:14.968Z,25.00
2022-09-12T14:36:45.508Z,25.01
2022-09-12T14:39:17.701Z,24.95
2022-09-12T14:41:44.414Z,24.88
2022-09-12T14:44:19.303Z,24.90
2022-09-12T14:46:47.289Z,24.97
2022-09-12T14:49:18.348Z,25.02
2022-09-12T14:51:51.484Z,25.12
2022-09-12T14:54:30.335Z,25.23
2022-09-12T14:57:02.388Z,25.25
2022-09-12T14:59:33.326Z,25.25
2022-09-12T15:02:21.856Z,25.25
2022-09-12T15:05:16.233Z,25.16
2022-09-12T15:08:04.455Z,25.17
2022-09-12T15:10:36.597Z,25.17
2022-09-12T15:13:05.794Z,25.08
2022-09-12T15:15:32.891Z,24.99
2022-09-12T15:18:02.305Z,24.97
2022-09-12T15:20:32.002Z,24.90
2022-09-12T15:22:58.905Z,24.84
2022-09-12T15:25:25.322Z,24.85
2022-09-12T15:27:53.477Z,24.80
2022-09-12T15:30:19.952Z,24.77
2022-09-12T15:32:46.409Z,24.77
2022-09-12T15:35:22.829Z,24.74
2022-09-12T15:37:49.888Z,24.80
2022-09-12T15:40:17.248Z,24.78
2022-09-12T15:42:44.006Z,24.76
2022-09-12T15:45:24.030Z,24.68
2022-09-12T15:47:50.597Z,24.59
2022-09-12T15:50:17.017Z,24.51
2022-09-12T15:52:44.348Z,24.59
2022-09-12T15:55:19.574Z,24.72
2022-09-12T15:57:46.463Z,24.84
2022-09-12T16:00:14.370Z,24.95
2022-09-12T16:02:41.027Z,25.01
2022-09-12T16:05:14.274Z,25.03
2022-09-12T16:07:40.756Z,25.02
2022-09-12T16:10:07.700Z,24.98
2022-09-12T16:12:34.189Z,24.91
2022-09-12T16:15:00.713Z,24.89
2022-09-12T16:17:27.131Z,24.90
2022-09-12T16:19:53.592Z,24.91
2022-09-12T16:22:20.046Z,24.86
2022-09-12T16:24:46.473Z,24.76
2022-09-12T16:27:13.001Z,24.73
2022-09-12T16:29:39.451Z,24.73
2022-09-12T16:32:13.313Z,24.69
2022-09-12T16:34:39.708Z,24.65
2022-09-12T16:37:06.301Z,24.63
2022-09-12T16:39:34.454Z,24.59
2022-09-12T16:42:00.878Z,24.62
2022-09-12T16:44:27.421Z,24.56
2022-09-12T16:46:53.897Z,24.44
2022-09-12T16:49:21.699Z,24.35
2022-09-12T16:51:48.113Z,24.30
2022-09-12T16:54:15.724Z,24.21
2022-09-12T16:56:42.195Z,24.17
2022-09-12T16:59:12.078Z,24.11
2022-09-12T17:01:38.719Z,24.05
2022-09-12T17:04:05.483Z,23.97
2022-09-12T17:06:33.351Z,23.87
2022-09-12T17:09:01.610Z,23.82
2022-09-12T17:11:34.688Z,23.74
2022-09-12T17:14:06.467Z,23.66
2022-09-12T17:16:52.157Z,23.61
2022-09-12T17:19:22.107Z,23.55
2022-09-12T17:21:49.984Z,23.46
2022-09-12T17:24:19.967Z,23.37
2022-09-12T17:26:46.558Z,23.29
2022-09-12T17:29:16.596Z,23.23
2022-09-12T17:31:44.073Z,23.17
2022-09-12T17:34:14.373Z,23.08
2022-09-12T17:36:44.217Z,22.92
2022-09-12T17:39:11.673Z,22.81
2022-09-12T17:41:38.476Z,22.77
2022-09-12T17:44:07.332Z,22.69
2022-09-12T17:46:38.661Z,22.58
2022-09-12T17:49:08.785Z,22.51
2022-09-12T17:51:35.469Z,22.49
2022-09-12T17:54:16.962Z,22.43
2022-09-12T17:56:45.911Z,22.35
2022-09-12T17:59:21.735Z,22.28
2022-09-12T18:02:07.527Z,22.25
2022-09-12T18:04:34.394Z,22.16
2022-09-12T18:07:00.900Z,22.07
2022-09-12T18:09:28.348Z,22.00
2022-09-12T18:11:55.247Z,21.93
2022-09-12T18:14:22.391Z,21.88
2022-09-12T18:16:49.656Z,21.80
2022-09-12T18:19:16.496Z,21.73
2022-09-12T18:21:42.922Z,21.63
2022-09-12T18:24:10.645Z,21.53
2022-09-12T18:26:37.883Z,21.48
2022-09-12T18:29:04.641Z,21.45
2022-09-12T18:31:31.423Z,21.40
2022-09-12T18:34:00.266Z,21.38
2022-09-12T18:36:27.623Z,21.33
2022-09-12T18:38:54.268Z,21.29
2022-09-12T18:41:23.393Z,21.25
2022-09-12T18:43:57.637Z,21.18
2022-09-12T18:46:25.100Z,21.11
2022-09-12T18:48:52.268Z,21.07
2022-09-12T18:51:20.998Z,21.04
2022-09-12T18:53:56.315Z,20.99
2022-09-12T18:56:25.529Z,20.95
2022-09-12T18:58:54.506Z,20.91
2022-09-12T19:01:22.039Z,20.89
2022-09-12T19:03:49.466Z,20.87
2022-09-12T19:06:22.580Z,20.85
2022-09-12T19:08:50.209Z,20.85
2022-09-12T19:11:17.854Z,20.82
2022-09-12T19:13:46.229Z,20.78
2022-09-12T19:16:16.895Z,20.74
2022-09-12T19:18:43.708Z,20.68
2022-09-12T19:21:39.428Z,20.66
2022-09-12T19:24:10.150Z,20.62
2022-09-12T19:26:38.110Z,20.57
2022-09-12T19:29:05.333Z,20.54
2022-09-12T19:31:32.119Z,20.50
2022-09-12T19:34:03.515Z,20.46
2022-09-12T19:36:47.039Z,20.45
2022-09-12T19:39:16.239Z,20.44
2022-09-12T19:41:43.680Z,20.45
2022-09-12T19:44:10.415Z,20.46
2022-09-12T19:50:43.130Z,20.31
2022-09-12T19:53:09.571Z,20.30
2022-09-12T19:56:38.738Z,20.31
2022-09-12T20:03:16.220Z,20.34
2022-09-12T20:06:05.473Z,20.32
2022-09-12T20:08:47.359Z,20.31
2022-09-12T20:11:31.614Z,20.28
2022-09-12T20:14:34.912Z,20.27
2022-09-12T20:17:01.441Z,20.28
2022-09-12T20:19:28.217Z,20.25
2022-09-12T20:21:54.630Z,20.27
2022-09-12T20:24:21.086Z,20.22
2022-09-12T20:26:47.660Z,20.16
2022-09-12T20:29:14.379Z,20.12
2022-09-12T20:31:42.324Z,20.09
2022-09-12T20:34:15.418Z,20.06
2022-09-12T20:36:42.362Z,20.02
2022-09-12T20:39:14.062Z,19.95
2022-09-12T20:41:40.506Z,19.89
2022-09-12T20:44:06.920Z,19.86
2022-09-12T20:46:33.694Z,19.85
2022-09-12T20:49:00.113Z,19.80
2022-09-12T20:51:27.261Z,19.75
2022-09-12T20:53:54.681Z,19.69
2022-09-12T20:56:21.980Z,19.70
2022-09-12T20:58:48.406Z,19.72
2022-09-12T21:01:15.900Z,19.72
2022-09-12T21:03:43.688Z,19.72
2022-09-12T21:06:12.542Z,19.72
2022-09-12T21:08:39.358Z,19.68
2022-09-12T21:11:07.042Z,19.68
2022-09-12T21:13:33.942Z,19.68
2022-09-12T21:16:03.455Z,19.70
2022-09-12T21:18:31.535Z,19.68
2022-09-12T21:20:58.071Z,19.63
2022-09-12T21:23:25.533Z,19.63
2022-09-12T21:25:52.842Z,19.64
2022-09-12T21:28:20.412Z,19.61
2022-09-12T21:30:50.781Z,19.61
2022-09-12T21:33:19.167Z,19.59
2022-09-12T21:35:47.213Z,19.54
2022-09-12T21:38:17.588Z,19.49
2022-09-12T21:40:44.151Z,19.50
2022-09-12T21:43:13.037Z,19.52
2022-09-12T21:45:40.414Z,19.48
2022-09-12T21:48:07.038Z,19.48
2022-09-12T21:50:33.503Z,19.48
2022-09-12T21:52:59.933Z,19.49
2022-09-12T21:55:27.263Z,19.49
2022-09-12T21:57:54.792Z,19.49
2022-09-12T22:00:21.414Z,19.49
2022-09-12T22:02:48.792Z,19.49
2022-09-12T22:05:15.652Z,19.48
2022-09-12T22:07:42.230Z,19.49
2022-09-12T22:10:09.186Z,19.48
2022-09-12T22:12:35.683Z,19.46
2022-09-12T22:15:17.531Z,19.47
2022-09-12T22:17:48.635Z,19.44
2022-09-12T22:20:15.106Z,19.44
2022-09-12T22:23:00.103Z,19.46
2022-09-12T22:25:26.643Z,19.45
2022-09-12T22:27:54.479Z,19.43
2022-09-12T22:30:22.544Z,19.41
2022-09-12T22:32:51.138Z,19.42
2022-09-12T22:35:18.403Z,19.42
2022-09-12T22:37:46.511Z,19.43
2022-09-12T22:40:13.149Z,19.44
2022-09-12T22:42:39.710Z,19.44
2022-09-12T22:45:07.658Z,19.44
2022-09-12T22:47:34.159Z,19.41
2022-09-12T22:50:00.694Z,19.38
2022-09-12T22:52:27.216Z,19.36
2022-09-12T22:54:53.702Z,19.35
2022-09-12T22:57:20.183Z,19.34
2022-09-12T22:59:46.663Z,19.36
2022-09-12T23:02:13.381Z,19.34
2022-09-12T23:04:40.044Z,19.34
2022-09-12T23:07:06.639Z,19.34
2022-09-12T23:09:35.446Z,19.31
2022-09-12T23:12:02.730Z,19.31
2022-09-12T23:14:29.320Z,19.30
2022-09-12T23:16:55.773Z,19.28
2022-09-12T23:19:22.292Z,19.25
2022-09-12T23:21:48.767Z,19.22
2022-09-12T23:24:15.410Z,19.21
2022-09-12T23:26:41.854Z,19.19
2022-09-12T23:29:08.837Z,19.16
2022-09-12T23:31:35.336Z,19.14
2022-09-12T23:34:05.803Z,19.15
2022-09-12T23:36:32.460Z,19.15
2022-09-12T23:38:58.898Z,19.14
2022-09-12T23:41:25.492Z,19.14
2022-09-12T23:43:51.922Z,19.12
2022-09-12T23:46:19.961Z,19.09
2022-09-12T23:48:46.606Z,19.07
2022-09-12T23:51:13.598Z,19.04
2022-09-12T23:53:40.510Z,19.00
2022-09-12T23:56:07.609Z,18.99
2022-09-12T23:58:34.066Z,18.98
